Isle of Barra, United Kingdom
Current Conditions -  °F | °C
As of 9:20 PM on Monday 24 Nov 2014 (Local Time) from EGPL Reporting Station
Few Clouds Few Clouds  
Wind Chill: 42°   Ceiling: Unl
Heat Index: 46°   Visibility: 6mi
Dew Point: 39°   Wind: 9mph
Humidity: 76%   Direction: 290°WNW
Pressure: 30.21"   Gusts: NA
Location:  56.96°N, 7.44°W
Report Text: EGPL 242120Z AUTO 29008KT 9999 FEW033/// 08/04 Q1023
Loading
Personal Weather Stations






























Interactive Weather Map New forecast layout! Learn more

10-Day Weather Forecast

Advertisements
Track Severe Weather on mobile